Terminal Aerodrome Forecast
Issued by NWS

Home | Current Version | Previous Version | Text Only | Print | Product List | Glossary On
Versions: 1 2 3 4 5 6 7 8 9 10 11 12 13 14 15 16 17 18 19 20 21 22 23 24 25 26
000
FTUS42 KFFC 122300
TAFRYY
TAF
KRYY 122320Z 1300/1324 14006KT P6SM SCT050 BKN090
      TEMPO 1300/1301 -SHRA BKN050
     FM130200 00000KT P6SM FEW250
     FM131400 24004KT P6SM SCT025
     FM131800 24006KT P6SM SCT050
      AMD NOT SKED 1304/1312=

USA.gov is the U.S. government's official web portal to all federal, state and local government web resources and services.